sensor_id;sensor_type;location;lat;lon;timestamp;P1;durP1;ratioP1;P2;durP2;ratioP2
12947;SDS011;6539;49.476;8.484;2023-02-01T00:00:37;3.90;;;2.93;;
12947;SDS011;6539;49.476;8.484;2023-02-01T00:03:05;3.07;;;2.77;;
12947;SDS011;6539;49.476;8.484;2023-02-01T00:05:33;6.23;;;2.90;;
12947;SDS011;6539;49.476;8.484;2023-02-01T00:07:59;3.50;;;3.20;;
12947;SDS011;6539;49.476;8.484;2023-02-01T00:10:27;4.33;;;3.20;;
12947;SDS011;6539;49.476;8.484;2023-02-01T00:12:52;4.93;;;3.17;;
12947;SDS011;6539;49.476;8.484;2023-02-01T00:15:18;4.00;;;3.40;;
12947;SDS011;6539;49.476;8.484;2023-02-01T00:17:45;4.47;;;3.23;;
12947;SDS011;6539;49.476;8.484;2023-02-01T00:20:13;4.90;;;3.13;;
12947;SDS011;6539;49.476;8.484;2023-02-01T00:22:39;3.20;;;2.60;;
12947;SDS011;6539;49.476;8.484;2023-02-01T00:25:05;4.20;;;3.13;;
12947;SDS011;6539;49.476;8.484;2023-02-01T00:27:31;4.03;;;3.37;;
12947;SDS011;6539;49.476;8.484;2023-02-01T00:29:57;3.70;;;3.23;;
12947;SDS011;6539;49.476;8.484;2023-02-01T00:32:23;6.30;;;3.33;;
12947;SDS011;6539;49.476;8.484;2023-02-01T00:34:49;5.53;;;3.13;;
12947;SDS011;6539;49.476;8.484;2023-02-01T00:37:17;5.17;;;2.87;;
12947;SDS011;6539;49.476;8.484;2023-02-01T00:39:43;5.17;;;2.90;;
12947;SDS011;6539;49.476;8.484;2023-02-01T00:42:08;4.23;;;3.20;;
12947;SDS011;6539;49.476;8.484;2023-02-01T00:44:36;3.43;;;3.13;;
12947;SDS011;6539;49.476;8.484;2023-02-01T00:47:02;4.60;;;3.07;;
12947;SDS011;6539;49.476;8.484;2023-02-01T00:49:28;4.13;;;2.93;;
12947;SDS011;6539;49.476;8.484;2023-02-01T00:51:54;3.93;;;3.53;;
12947;SDS011;6539;49.476;8.484;2023-02-01T00:54:20;3.40;;;3.10;;
12947;SDS011;6539;49.476;8.484;2023-02-01T00:56:46;4.97;;;3.33;;
12947;SDS011;6539;49.476;8.484;2023-02-01T00:59:11;3.47;;;3.17;;
12947;SDS011;6539;49.476;8.484;2023-02-01T01:01:38;3.57;;;3.20;;
12947;SDS011;6539;49.476;8.484;2023-02-01T01:04:09;3.67;;;3.20;;
12947;SDS011;6539;49.476;8.484;2023-02-01T01:06:37;4.53;;;3.33;;
12947;SDS011;6539;49.476;8.484;2023-02-01T01:09:04;4.33;;;3.27;;
12947;SDS011;6539;49.476;8.484;2023-02-01T01:11:33;4.73;;;3.53;;
12947;SDS011;6539;49.476;8.484;2023-02-01T01:14:04;4.27;;;3.03;;
12947;SDS011;6539;49.476;8.484;2023-02-01T01:16:32;4.60;;;3.30;;
12947;SDS011;6539;49.476;8.484;2023-02-01T01:18:59;4.77;;;3.20;;
12947;SDS011;6539;49.476;8.484;2023-02-01T01:21:28;4.30;;;3.03;;
12947;SDS011;6539;49.476;8.484;2023-02-01T01:23:54;5.83;;;3.47;;
12947;SDS011;6539;49.476;8.484;2023-02-01T01:26:22;3.67;;;2.80;;
12947;SDS011;6539;49.476;8.484;2023-02-01T01:28:51;4.30;;;3.27;;
12947;SDS011;6539;49.476;8.484;2023-02-01T01:31:22;3.97;;;3.50;;
12947;SDS011;6539;49.476;8.484;2023-02-01T01:33:52;4.43;;;3.10;;
12947;SDS011;6539;49.476;8.484;2023-02-01T01:36:22;4.20;;;3.10;;
12947;SDS011;6539;49.476;8.484;2023-02-01T01:38:50;5.87;;;3.77;;
12947;SDS011;6539;49.476;8.484;2023-02-01T01:41:17;3.70;;;3.30;;
12947;SDS011;6539;49.476;8.484;2023-02-01T01:46:20;6.00;;;3.30;;
12947;SDS011;6539;49.476;8.484;2023-02-01T01:49:00;4.13;;;3.63;;
12947;SDS011;6539;49.476;8.484;2023-02-01T01:51:40;5.77;;;3.70;;
12947;SDS011;6539;49.476;8.484;2023-02-01T01:57:10;4.33;;;3.67;;
12947;SDS011;6539;49.476;8.484;2023-02-01T02:00:00;5.20;;;3.10;;
12947;SDS011;6539;49.476;8.484;2023-02-01T02:02:33;6.03;;;3.60;;
12947;SDS011;6539;49.476;8.484;2023-02-01T02:05:02;6.60;;;3.77;;
12947;SDS011;6539;49.476;8.484;2023-02-01T02:07:32;6.73;;;3.73;;
12947;SDS011;6539;49.476;8.484;2023-02-01T02:10:05;4.47;;;3.43;;
12947;SDS011;6539;49.476;8.484;2023-02-01T02:12:38;5.57;;;3.70;;
12947;SDS011;6539;49.476;8.484;2023-02-01T02:15:09;5.73;;;3.70;;
12947;SDS011;6539;49.476;8.484;2023-02-01T02:17:44;4.57;;;3.20;;
12947;SDS011;6539;49.476;8.484;2023-02-01T02:32:23;4.50;;;3.33;;
12947;SDS011;6539;49.476;8.484;2023-02-01T02:35:33;6.43;;;4.23;;
12947;SDS011;6539;49.476;8.484;2023-02-01T02:38:18;5.60;;;3.87;;
12947;SDS011;6539;49.476;8.484;2023-02-01T02:41:25;4.67;;;3.47;;
12947;SDS011;6539;49.476;8.484;2023-02-01T02:44:13;6.57;;;3.60;;
12947;SDS011;6539;49.476;8.484;2023-02-01T02:47:31;6.40;;;3.80;;
12947;SDS011;6539;49.476;8.484;2023-02-01T02:53:25;7.60;;;4.43;;
12947;SDS011;6539;49.476;8.484;2023-02-01T02:56:18;6.00;;;4.33;;
12947;SDS011;6539;49.476;8.484;2023-02-01T02:59:07;6.20;;;4.27;;
12947;SDS011;6539;49.476;8.484;2023-02-01T03:01:56;4.47;;;3.63;;
12947;SDS011;6539;49.476;8.484;2023-02-01T03:04:43;3.40;;;3.10;;
12947;SDS011;6539;49.476;8.484;2023-02-01T03:07:45;4.40;;;3.43;;
12947;SDS011;6539;49.476;8.484;2023-02-01T03:13:56;5.47;;;3.70;;
12947;SDS011;6539;49.476;8.484;2023-02-01T03:16:24;8.57;;;3.60;;
12947;SDS011;6539;49.476;8.484;2023-02-01T03:19:02;5.33;;;3.20;;
12947;SDS011;6539;49.476;8.484;2023-02-01T03:24:31;3.57;;;3.20;;
12947;SDS011;6539;49.476;8.484;2023-02-01T03:32:34;5.20;;;3.83;;
12947;SDS011;6539;49.476;8.484;2023-02-01T03:35:26;3.80;;;3.33;;
12947;SDS011;6539;49.476;8.484;2023-02-01T03:38:13;4.93;;;3.80;;
12947;SDS011;6539;49.476;8.484;2023-02-01T03:41:01;3.57;;;3.20;;
12947;SDS011;6539;49.476;8.484;2023-02-01T03:47:08;4.97;;;3.50;;
12947;SDS011;6539;49.476;8.484;2023-02-01T03:49:41;4.13;;;3.47;;
12947;SDS011;6539;49.476;8.484;2023-02-01T03:52:36;5.03;;;3.73;;
12947;SDS011;6539;49.476;8.484;2023-02-01T03:55:22;7.43;;;3.83;;
12947;SDS011;6539;49.476;8.484;2023-02-01T03:57:58;5.20;;;3.63;;
12947;SDS011;6539;49.476;8.484;2023-02-01T04:00:34;5.07;;;3.37;;
12947;SDS011;6539;49.476;8.484;2023-02-01T04:03:01;4.07;;;3.67;;
12947;SDS011;6539;49.476;8.484;2023-02-01T04:05:29;5.93;;;3.53;;
12947;SDS011;6539;49.476;8.484;2023-02-01T04:08:00;6.83;;;3.60;;
12947;SDS011;6539;49.476;8.484;2023-02-01T04:10:27;7.00;;;3.63;;
12947;SDS011;6539;49.476;8.484;2023-02-01T04:12:53;5.70;;;3.47;;
12947;SDS011;6539;49.476;8.484;2023-02-01T04:15:18;6.77;;;4.17;;
12947;SDS011;6539;49.476;8.484;2023-02-01T04:17:44;6.13;;;3.70;;
12947;SDS011;6539;49.476;8.484;2023-02-01T04:20:10;5.47;;;3.70;;
12947;SDS011;6539;49.476;8.484;2023-02-01T04:22:36;4.37;;;3.50;;
12947;SDS011;6539;49.476;8.484;2023-02-01T04:25:07;5.87;;;3.63;;
12947;SDS011;6539;49.476;8.484;2023-02-01T04:27:33;4.67;;;3.77;;
12947;SDS011;6539;49.476;8.484;2023-02-01T04:30:00;6.60;;;3.60;;
12947;SDS011;6539;49.476;8.484;2023-02-01T04:32:26;8.40;;;4.13;;
12947;SDS011;6539;49.476;8.484;2023-02-01T04:34:53;4.73;;;3.97;;
12947;SDS011;6539;49.476;8.484;2023-02-01T04:37:19;8.63;;;3.70;;
12947;SDS011;6539;49.476;8.484;2023-02-01T04:39:45;4.00;;;3.60;;
12947;SDS011;6539;49.476;8.484;2023-02-01T04:42:13;6.27;;;3.63;;
12947;SDS011;6539;49.476;8.484;2023-02-01T04:44:41;10.53;;;3.90;;
12947;SDS011;6539;49.476;8.484;2023-02-01T04:47:07;7.60;;;3.90;;
12947;SDS011;6539;49.476;8.484;2023-02-01T04:49:34;7.03;;;3.70;;
12947;SDS011;6539;49.476;8.484;2023-02-01T04:52:02;6.47;;;3.70;;
12947;SDS011;6539;49.476;8.484;2023-02-01T04:54:29;5.63;;;3.77;;
12947;SDS011;6539;49.476;8.484;2023-02-01T04:56:54;6.93;;;3.70;;
12947;SDS011;6539;49.476;8.484;2023-02-01T04:59:20;11.33;;;4.50;;
12947;SDS011;6539;49.476;8.484;2023-02-01T05:01:48;6.90;;;3.90;;
12947;SDS011;6539;49.476;8.484;2023-02-01T05:04:14;8.23;;;3.43;;
12947;SDS011;6539;49.476;8.484;2023-02-01T05:06:43;9.63;;;3.53;;
12947;SDS011;6539;49.476;8.484;2023-02-01T05:09:10;5.47;;;3.50;;
12947;SDS011;6539;49.476;8.484;2023-02-01T05:11:38;5.47;;;3.20;;
12947;SDS011;6539;49.476;8.484;2023-02-01T05:14:43;6.43;;;2.73;;
12947;SDS011;6539;49.476;8.484;2023-02-01T05:17:11;6.40;;;3.53;;
12947;SDS011;6539;49.476;8.484;2023-02-01T05:19:36;7.67;;;3.17;;
12947;SDS011;6539;49.476;8.484;2023-02-01T05:22:02;6.63;;;3.33;;
12947;SDS011;6539;49.476;8.484;2023-02-01T05:24:28;5.70;;;3.40;;
12947;SDS011;6539;49.476;8.484;2023-02-01T05:26:53;7.73;;;3.50;;
12947;SDS011;6539;49.476;8.484;2023-02-01T05:29:19;4.33;;;3.37;;
12947;SDS011;6539;49.476;8.484;2023-02-01T05:31:55;6.53;;;3.30;;
12947;SDS011;6539;49.476;8.484;2023-02-01T05:34:20;5.07;;;3.30;;
12947;SDS011;6539;49.476;8.484;2023-02-01T05:36:46;8.03;;;3.80;;
12947;SDS011;6539;49.476;8.484;2023-02-01T05:39:12;5.33;;;3.70;;
12947;SDS011;6539;49.476;8.484;2023-02-01T05:41:38;5.97;;;3.30;;
12947;SDS011;6539;49.476;8.484;2023-02-01T05:44:04;4.60;;;3.37;;
12947;SDS011;6539;49.476;8.484;2023-02-01T05:46:32;8.63;;;4.27;;
12947;SDS011;6539;49.476;8.484;2023-02-01T05:49:02;8.57;;;3.80;;
12947;SDS011;6539;49.476;8.484;2023-02-01T05:51:30;6.10;;;4.30;;
12947;SDS011;6539;49.476;8.484;2023-02-01T05:53:56;11.43;;;4.43;;
12947;SDS011;6539;49.476;8.484;2023-02-01T05:56:24;6.37;;;3.90;;
12947;SDS011;6539;49.476;8.484;2023-02-01T05:58:52;6.67;;;4.17;;
12947;SDS011;6539;49.476;8.484;2023-02-01T06:01:18;10.13;;;4.20;;
12947;SDS011;6539;49.476;8.484;2023-02-01T06:03:46;8.17;;;4.00;;
12947;SDS011;6539;49.476;8.484;2023-02-01T06:06:17;4.97;;;3.37;;
12947;SDS011;6539;49.476;8.484;2023-02-01T06:08:43;6.33;;;3.50;;
12947;SDS011;6539;49.476;8.484;2023-02-01T06:11:12;5.47;;;3.70;;
12947;SDS011;6539;49.476;8.484;2023-02-01T06:13:38;5.23;;;3.33;;
12947;SDS011;6539;49.476;8.484;2023-02-01T06:16:06;6.10;;;3.70;;
12947;SDS011;6539;49.476;8.484;2023-02-01T06:18:33;6.57;;;3.43;;
12947;SDS011;6539;49.476;8.484;2023-02-01T06:21:00;6.43;;;3.43;;
12947;SDS011;6539;49.476;8.484;2023-02-01T06:23:29;6.73;;;3.20;;
12947;SDS011;6539;49.476;8.484;2023-02-01T06:25:59;4.97;;;2.70;;
12947;SDS011;6539;49.476;8.484;2023-02-01T06:28:33;4.17;;;2.87;;
12947;SDS011;6539;49.476;8.484;2023-02-01T06:31:05;5.27;;;2.70;;
12947;SDS011;6539;49.476;8.484;2023-02-01T06:33:32;8.03;;;2.87;;
12947;SDS011;6539;49.476;8.484;2023-02-01T06:36:02;7.53;;;3.00;;
12947;SDS011;6539;49.476;8.484;2023-02-01T06:38:31;6.27;;;2.93;;
12947;SDS011;6539;49.476;8.484;2023-02-01T06:40:59;6.30;;;3.73;;
12947;SDS011;6539;49.476;8.484;2023-02-01T06:43:26;8.83;;;3.53;;
12947;SDS011;6539;49.476;8.484;2023-02-01T06:46:01;6.63;;;3.43;;
12947;SDS011;6539;49.476;8.484;2023-02-01T06:48:33;7.93;;;3.83;;
12947;SDS011;6539;49.476;8.484;2023-02-01T06:50:59;6.17;;;4.00;;
12947;SDS011;6539;49.476;8.484;2023-02-01T06:53:25;17.27;;;4.43;;
12947;SDS011;6539;49.476;8.484;2023-02-01T06:55:53;10.03;;;3.87;;
12947;SDS011;6539;49.476;8.484;2023-02-01T06:58:30;5.23;;;3.33;;
12947;SDS011;6539;49.476;8.484;2023-02-01T07:00:58;8.80;;;3.53;;
12947;SDS011;6539;49.476;8.484;2023-02-01T07:03:30;8.20;;;4.23;;
12947;SDS011;6539;49.476;8.484;2023-02-01T07:05:56;7.97;;;3.83;;
12947;SDS011;6539;49.476;8.484;2023-02-01T07:08:29;9.87;;;3.80;;
12947;SDS011;6539;49.476;8.484;2023-02-01T07:11:06;7.77;;;4.13;;
12947;SDS011;6539;49.476;8.484;2023-02-01T07:13:40;8.90;;;4.23;;
12947;SDS011;6539;49.476;8.484;2023-02-01T07:16:14;12.07;;;4.00;;
12947;SDS011;6539;49.476;8.484;2023-02-01T07:18:44;10.07;;;4.00;;
12947;SDS011;6539;49.476;8.484;2023-02-01T07:21:10;7.73;;;3.83;;
12947;SDS011;6539;49.476;8.484;2023-02-01T07:23:37;10.50;;;4.43;;
12947;SDS011;6539;49.476;8.484;2023-02-01T07:26:04;11.13;;;4.20;;
12947;SDS011;6539;49.476;8.484;2023-02-01T07:28:32;9.90;;;3.63;;
12947;SDS011;6539;49.476;8.484;2023-02-01T07:31:07;11.23;;;3.77;;
12947;SDS011;6539;49.476;8.484;2023-02-01T07:33:38;9.87;;;3.93;;
12947;SDS011;6539;49.476;8.484;2023-02-01T07:36:13;7.43;;;3.40;;
12947;SDS011;6539;49.476;8.484;2023-02-01T07:38:41;12.50;;;3.77;;
12947;SDS011;6539;49.476;8.484;2023-02-01T07:41:11;9.23;;;3.90;;
12947;SDS011;6539;49.476;8.484;2023-02-01T07:43:40;6.73;;;3.63;;
12947;SDS011;6539;49.476;8.484;2023-02-01T07:46:09;9.93;;;4.27;;
12947;SDS011;6539;49.476;8.484;2023-02-01T07:48:35;12.07;;;4.60;;
12947;SDS011;6539;49.476;8.484;2023-02-01T07:51:05;6.33;;;3.67;;
12947;SDS011;6539;49.476;8.484;2023-02-01T07:53:40;6.47;;;3.00;;
12947;SDS011;6539;49.476;8.484;2023-02-01T07:56:11;9.77;;;4.07;;
12947;SDS011;6539;49.476;8.484;2023-02-01T07:58:48;6.87;;;3.23;;
12947;SDS011;6539;49.476;8.484;2023-02-01T08:01:16;7.37;;;3.40;;
12947;SDS011;6539;49.476;8.484;2023-02-01T08:03:56;11.27;;;2.93;;
12947;SDS011;6539;49.476;8.484;2023-02-01T08:06:25;8.93;;;3.03;;
12947;SDS011;6539;49.476;8.484;2023-02-01T08:08:54;9.97;;;2.90;;
12947;SDS011;6539;49.476;8.484;2023-02-01T08:11:22;8.07;;;2.70;;
12947;SDS011;6539;49.476;8.484;2023-02-01T08:13:52;4.97;;;2.63;;
12947;SDS011;6539;49.476;8.484;2023-02-01T08:16:19;6.13;;;2.20;;
12947;SDS011;6539;49.476;8.484;2023-02-01T08:18:49;7.80;;;3.10;;
12947;SDS011;6539;49.476;8.484;2023-02-01T08:21:25;6.97;;;3.43;;
12947;SDS011;6539;49.476;8.484;2023-02-01T08:24:01;8.03;;;2.20;;
12947;SDS011;6539;49.476;8.484;2023-02-01T08:26:37;9.63;;;3.17;;
12947;SDS011;6539;49.476;8.484;2023-02-01T08:29:06;9.20;;;2.70;;
12947;SDS011;6539;49.476;8.484;2023-02-01T08:31:33;7.87;;;2.40;;
12947;SDS011;6539;49.476;8.484;2023-02-01T08:34:00;4.90;;;2.87;;
12947;SDS011;6539;49.476;8.484;2023-02-01T08:36:29;6.27;;;3.00;;
12947;SDS011;6539;49.476;8.484;2023-02-01T08:38:58;6.20;;;2.60;;
12947;SDS011;6539;49.476;8.484;2023-02-01T08:41:26;7.47;;;2.90;;
12947;SDS011;6539;49.476;8.484;2023-02-01T08:43:55;8.90;;;3.33;;
12947;SDS011;6539;49.476;8.484;2023-02-01T08:46:22;11.60;;;3.70;;
12947;SDS011;6539;49.476;8.484;2023-02-01T08:48:51;10.87;;;3.30;;
12947;SDS011;6539;49.476;8.484;2023-02-01T08:51:20;7.30;;;2.97;;
12947;SDS011;6539;49.476;8.484;2023-02-01T08:53:48;8.63;;;3.40;;
12947;SDS011;6539;49.476;8.484;2023-02-01T08:56:15;10.73;;;3.90;;
12947;SDS011;6539;49.476;8.484;2023-02-01T08:58:42;8.50;;;3.77;;
12947;SDS011;6539;49.476;8.484;2023-02-01T09:01:10;11.10;;;4.27;;
12947;SDS011;6539;49.476;8.484;2023-02-01T09:03:40;15.93;;;4.73;;
12947;SDS011;6539;49.476;8.484;2023-02-01T09:06:07;10.97;;;4.13;;
12947;SDS011;6539;49.476;8.484;2023-02-01T09:08:37;12.77;;;3.80;;
12947;SDS011;6539;49.476;8.484;2023-02-01T09:11:06;11.57;;;3.70;;
12947;SDS011;6539;49.476;8.484;2023-02-01T09:13:36;9.27;;;4.00;;
12947;SDS011;6539;49.476;8.484;2023-02-01T09:16:06;16.07;;;4.73;;
12947;SDS011;6539;49.476;8.484;2023-02-01T09:18:32;10.07;;;3.97;;
12947;SDS011;6539;49.476;8.484;2023-02-01T09:20:58;13.63;;;3.80;;
12947;SDS011;6539;49.476;8.484;2023-02-01T09:23:29;10.20;;;3.80;;
12947;SDS011;6539;49.476;8.484;2023-02-01T09:25:58;9.37;;;3.60;;
12947;SDS011;6539;49.476;8.484;2023-02-01T09:28:32;15.13;;;4.23;;
12947;SDS011;6539;49.476;8.484;2023-02-01T09:30:59;13.00;;;4.13;;
12947;SDS011;6539;49.476;8.484;2023-02-01T09:33:26;10.53;;;3.97;;
12947;SDS011;6539;49.476;8.484;2023-02-01T09:35:59;15.70;;;4.33;;
12947;SDS011;6539;49.476;8.484;2023-02-01T09:38:29;12.83;;;3.80;;
12947;SDS011;6539;49.476;8.484;2023-02-01T09:41:07;12.03;;;3.37;;
12947;SDS011;6539;49.476;8.484;2023-02-01T09:46:28;9.80;;;3.50;;
12947;SDS011;6539;49.476;8.484;2023-02-01T09:49:00;10.87;;;3.63;;
12947;SDS011;6539;49.476;8.484;2023-02-01T09:51:46;10.53;;;3.43;;
12947;SDS011;6539;49.476;8.484;2023-02-01T09:54:27;11.67;;;3.73;;
12947;SDS011;6539;49.476;8.484;2023-02-01T09:57:15;10.60;;;3.80;;
12947;SDS011;6539;49.476;8.484;2023-02-01T09:59:52;10.83;;;3.53;;
12947;SDS011;6539;49.476;8.484;2023-02-01T10:02:28;8.97;;;3.60;;
12947;SDS011;6539;49.476;8.484;2023-02-01T10:05:00;13.17;;;3.20;;
12947;SDS011;6539;49.476;8.484;2023-02-01T10:16:01;11.40;;;3.63;;
12947;SDS011;6539;49.476;8.484;2023-02-01T10:29:47;11.57;;;3.00;;
12947;SDS011;6539;49.476;8.484;2023-02-01T10:32:24;11.10;;;2.83;;
12947;SDS011;6539;49.476;8.484;2023-02-01T10:35:13;11.70;;;2.77;;
12947;SDS011;6539;49.476;8.484;2023-02-01T10:37:43;10.77;;;3.13;;
12947;SDS011;6539;49.476;8.484;2023-02-01T10:42:57;11.37;;;3.50;;
12947;SDS011;6539;49.476;8.484;2023-02-01T10:45:29;13.87;;;3.87;;
12947;SDS011;6539;49.476;8.484;2023-02-01T10:48:00;12.23;;;3.03;;
12947;SDS011;6539;49.476;8.484;2023-02-01T10:53:20;9.93;;;4.03;;
12947;SDS011;6539;49.476;8.484;2023-02-01T10:56:04;9.37;;;3.23;;
12947;SDS011;6539;49.476;8.484;2023-02-01T10:58:47;9.67;;;2.87;;
12947;SDS011;6539;49.476;8.484;2023-02-01T11:01:27;9.70;;;2.77;;
12947;SDS011;6539;49.476;8.484;2023-02-01T11:04:19;10.00;;;3.30;;
12947;SDS011;6539;49.476;8.484;2023-02-01T11:06:52;9.43;;;2.90;;
12947;SDS011;6539;49.476;8.484;2023-02-01T11:09:32;14.10;;;3.37;;
12947;SDS011;6539;49.476;8.484;2023-02-01T11:12:20;12.90;;;4.03;;
12947;SDS011;6539;49.476;8.484;2023-02-01T11:14:59;13.40;;;4.53;;
12947;SDS011;6539;49.476;8.484;2023-02-01T11:17:47;11.03;;;3.93;;
12947;SDS011;6539;49.476;8.484;2023-02-01T11:20:34;12.50;;;3.00;;
12947;SDS011;6539;49.476;8.484;2023-02-01T11:23:16;18.77;;;5.60;;
12947;SDS011;6539;49.476;8.484;2023-02-01T11:25:57;12.27;;;4.20;;
12947;SDS011;6539;49.476;8.484;2023-02-01T11:28:32;12.43;;;3.73;;
12947;SDS011;6539;49.476;8.484;2023-02-01T11:31:08;10.57;;;2.53;;
12947;SDS011;6539;49.476;8.484;2023-02-01T11:33:38;12.67;;;3.70;;
12947;SDS011;6539;49.476;8.484;2023-02-01T11:36:15;9.97;;;2.70;;
12947;SDS011;6539;49.476;8.484;2023-02-01T11:38:46;9.83;;;3.20;;
12947;SDS011;6539;49.476;8.484;2023-02-01T11:41:26;10.53;;;3.50;;
12947;SDS011;6539;49.476;8.484;2023-02-01T11:44:05;13.57;;;3.07;;
12947;SDS011;6539;49.476;8.484;2023-02-01T11:46:48;10.67;;;3.03;;
12947;SDS011;6539;49.476;8.484;2023-02-01T11:49:19;10.77;;;3.10;;
12947;SDS011;6539;49.476;8.484;2023-02-01T12:06:48;13.83;;;3.27;;
12947;SDS011;6539;49.476;8.484;2023-02-01T12:09:34;12.03;;;3.23;;
12947;SDS011;6539;49.476;8.484;2023-02-01T12:15:04;10.20;;;3.20;;
12947;SDS011;6539;49.476;8.484;2023-02-01T12:24:01;8.30;;;2.70;;
12947;SDS011;6539;49.476;8.484;2023-02-01T12:29:39;10.23;;;3.17;;
12947;SDS011;6539;49.476;8.484;2023-02-01T12:42:03;12.80;;;3.57;;
12947;SDS011;6539;49.476;8.484;2023-02-01T12:44:56;13.37;;;3.53;;
12947;SDS011;6539;49.476;8.484;2023-02-01T12:47:50;15.90;;;4.10;;
12947;SDS011;6539;49.476;8.484;2023-02-01T12:50:30;13.77;;;3.43;;
12947;SDS011;6539;49.476;8.484;2023-02-01T12:53:16;14.57;;;3.17;;
12947;SDS011;6539;49.476;8.484;2023-02-01T12:55:57;12.70;;;2.80;;
12947;SDS011;6539;49.476;8.484;2023-02-01T12:58:48;12.13;;;3.20;;
12947;SDS011;6539;49.476;8.484;2023-02-01T13:04:26;9.90;;;3.90;;
12947;SDS011;6539;49.476;8.484;2023-02-01T13:07:09;12.67;;;3.67;;
12947;SDS011;6539;49.476;8.484;2023-02-01T13:09:51;16.07;;;4.57;;
12947;SDS011;6539;49.476;8.484;2023-02-01T13:18:00;10.80;;;3.80;;
12947;SDS011;6539;49.476;8.484;2023-02-01T13:20:45;10.80;;;4.37;;
12947;SDS011;6539;49.476;8.484;2023-02-01T13:23:27;8.93;;;2.90;;
12947;SDS011;6539;49.476;8.484;2023-02-01T13:26:04;13.70;;;3.20;;
12947;SDS011;6539;49.476;8.484;2023-02-01T13:40:47;9.30;;;3.20;;
12947;SDS011;6539;49.476;8.484;2023-02-01T13:43:52;15.67;;;3.50;;
12947;SDS011;6539;49.476;8.484;2023-02-01T13:46:44;14.77;;;3.13;;
12947;SDS011;6539;49.476;8.484;2023-02-01T13:49:19;7.70;;;2.67;;
12947;SDS011;6539;49.476;8.484;2023-02-01T13:51:56;8.93;;;2.83;;
12947;SDS011;6539;49.476;8.484;2023-02-01T13:54:33;7.77;;;2.70;;
12947;SDS011;6539;49.476;8.484;2023-02-01T13:57:34;7.60;;;2.53;;
12947;SDS011;6539;49.476;8.484;2023-02-01T14:00:09;11.37;;;3.20;;
12947;SDS011;6539;49.476;8.484;2023-02-01T14:10:56;13.23;;;3.33;;
12947;SDS011;6539;49.476;8.484;2023-02-01T14:13:34;14.23;;;3.07;;
12947;SDS011;6539;49.476;8.484;2023-02-01T14:26:26;11.60;;;3.30;;
12947;SDS011;6539;49.476;8.484;2023-02-01T14:42:29;10.17;;;3.43;;
12947;SDS011;6539;49.476;8.484;2023-02-01T14:47:44;5.23;;;3.20;;
12947;SDS011;6539;49.476;8.484;2023-02-01T14:55:44;14.20;;;3.30;;
12947;SDS011;6539;49.476;8.484;2023-02-01T15:01:05;9.80;;;2.57;;
12947;SDS011;6539;49.476;8.484;2023-02-01T15:17:38;8.63;;;2.70;;
12947;SDS011;6539;49.476;8.484;2023-02-01T15:20:13;13.10;;;3.27;;
12947;SDS011;6539;49.476;8.484;2023-02-01T15:22:56;6.40;;;2.00;;
12947;SDS011;6539;49.476;8.484;2023-02-01T15:25:26;11.00;;;3.10;;
12947;SDS011;6539;49.476;8.484;2023-02-01T15:27:57;12.90;;;2.50;;
12947;SDS011;6539;49.476;8.484;2023-02-01T15:30:24;8.50;;;2.40;;
12947;SDS011;6539;49.476;8.484;2023-02-01T15:35:45;6.37;;;2.53;;
12947;SDS011;6539;49.476;8.484;2023-02-01T15:43:36;10.87;;;2.90;;
12947;SDS011;6539;49.476;8.484;2023-02-01T15:46:39;7.50;;;2.33;;
12947;SDS011;6539;49.476;8.484;2023-02-01T15:49:18;11.10;;;3.10;;
12947;SDS011;6539;49.476;8.484;2023-02-01T15:51:52;8.17;;;3.30;;
12947;SDS011;6539;49.476;8.484;2023-02-01T15:54:24;11.63;;;2.90;;
12947;SDS011;6539;49.476;8.484;2023-02-01T15:57:05;13.27;;;4.07;;
12947;SDS011;6539;49.476;8.484;2023-02-01T15:59:35;10.73;;;3.30;;
12947;SDS011;6539;49.476;8.484;2023-02-01T16:05:55;11.00;;;2.43;;
12947;SDS011;6539;49.476;8.484;2023-02-01T16:08:13;7.03;;;2.90;;
12947;SDS011;6539;49.476;8.484;2023-02-01T16:10:44;12.13;;;4.40;;
12947;SDS011;6539;49.476;8.484;2023-02-01T16:13:26;12.27;;;3.57;;
12947;SDS011;6539;49.476;8.484;2023-02-01T16:15:52;8.97;;;2.73;;
12947;SDS011;6539;49.476;8.484;2023-02-01T16:18:18;12.37;;;2.83;;
12947;SDS011;6539;49.476;8.484;2023-02-01T16:20:44;10.40;;;3.33;;
12947;SDS011;6539;49.476;8.484;2023-02-01T16:23:12;10.20;;;2.47;;
12947;SDS011;6539;49.476;8.484;2023-02-01T16:25:40;6.73;;;2.20;;
12947;SDS011;6539;49.476;8.484;2023-02-01T16:28:06;7.53;;;3.13;;
12947;SDS011;6539;49.476;8.484;2023-02-01T16:30:34;10.70;;;3.40;;
12947;SDS011;6539;49.476;8.484;2023-02-01T16:33:03;10.00;;;3.70;;
12947;SDS011;6539;49.476;8.484;2023-02-01T16:35:47;10.77;;;3.23;;
12947;SDS011;6539;49.476;8.484;2023-02-01T16:38:18;6.57;;;2.20;;
12947;SDS011;6539;49.476;8.484;2023-02-01T16:40:49;11.37;;;2.63;;
12947;SDS011;6539;49.476;8.484;2023-02-01T16:43:17;11.20;;;2.93;;
12947;SDS011;6539;49.476;8.484;2023-02-01T16:45:46;11.40;;;3.30;;
12947;SDS011;6539;49.476;8.484;2023-02-01T16:48:20;11.57;;;3.50;;
12947;SDS011;6539;49.476;8.484;2023-02-01T16:50:52;12.07;;;3.53;;
12947;SDS011;6539;49.476;8.484;2023-02-01T16:53:23;12.47;;;3.20;;
12947;SDS011;6539;49.476;8.484;2023-02-01T16:55:53;10.20;;;3.47;;
12947;SDS011;6539;49.476;8.484;2023-02-01T16:58:20;12.30;;;3.20;;
12947;SDS011;6539;49.476;8.484;2023-02-01T17:00:48;16.53;;;3.80;;
12947;SDS011;6539;49.476;8.484;2023-02-01T17:03:18;13.83;;;4.00;;
12947;SDS011;6539;49.476;8.484;2023-02-01T17:05:48;10.07;;;3.67;;
12947;SDS011;6539;49.476;8.484;2023-02-01T17:08:29;16.13;;;5.03;;
12947;SDS011;6539;49.476;8.484;2023-02-01T17:11:02;13.73;;;3.37;;
12947;SDS011;6539;49.476;8.484;2023-02-01T17:13:29;10.03;;;3.13;;
12947;SDS011;6539;49.476;8.484;2023-02-01T17:16:06;7.10;;;2.77;;
12947;SDS011;6539;49.476;8.484;2023-02-01T17:18:49;10.37;;;2.60;;
12947;SDS011;6539;49.476;8.484;2023-02-01T17:21:35;11.93;;;2.90;;
12947;SDS011;6539;49.476;8.484;2023-02-01T17:24:11;15.10;;;3.40;;
12947;SDS011;6539;49.476;8.484;2023-02-01T17:26:44;15.00;;;6.30;;
12947;SDS011;6539;49.476;8.484;2023-02-01T17:29:11;13.00;;;4.20;;
12947;SDS011;6539;49.476;8.484;2023-02-01T17:31:39;9.50;;;3.87;;
12947;SDS011;6539;49.476;8.484;2023-02-01T17:34:09;16.70;;;4.77;;
12947;SDS011;6539;49.476;8.484;2023-02-01T17:36:39;12.07;;;4.03;;
12947;SDS011;6539;49.476;8.484;2023-02-01T17:39:06;11.40;;;3.10;;
12947;SDS011;6539;49.476;8.484;2023-02-01T17:41:33;11.20;;;3.03;;
12947;SDS011;6539;49.476;8.484;2023-02-01T17:44:03;16.07;;;3.13;;
12947;SDS011;6539;49.476;8.484;2023-02-01T17:46:30;16.60;;;3.07;;
12947;SDS011;6539;49.476;8.484;2023-02-01T17:48:56;10.30;;;3.13;;
12947;SDS011;6539;49.476;8.484;2023-02-01T17:51:23;7.17;;;2.80;;
12947;SDS011;6539;49.476;8.484;2023-02-01T17:53:52;8.70;;;3.07;;
12947;SDS011;6539;49.476;8.484;2023-02-01T17:56:19;13.60;;;4.00;;
12947;SDS011;6539;49.476;8.484;2023-02-01T17:58:50;12.40;;;3.97;;
12947;SDS011;6539;49.476;8.484;2023-02-01T18:01:23;13.20;;;3.27;;
12947;SDS011;6539;49.476;8.484;2023-02-01T18:03:49;14.70;;;3.50;;
12947;SDS011;6539;49.476;8.484;2023-02-01T18:06:17;13.32;;;3.28;;
12947;SDS011;6539;49.476;8.484;2023-02-01T18:08:50;14.50;;;3.35;;
12947;SDS011;6539;49.476;8.484;2023-02-01T18:11:18;12.90;;;4.03;;
12947;SDS011;6539;49.476;8.484;2023-02-01T18:13:47;10.63;;;3.57;;
12947;SDS011;6539;49.476;8.484;2023-02-01T18:16:21;10.13;;;3.67;;
12947;SDS011;6539;49.476;8.484;2023-02-01T18:18:52;9.77;;;2.97;;
12947;SDS011;6539;49.476;8.484;2023-02-01T18:21:25;15.40;;;3.40;;
12947;SDS011;6539;49.476;8.484;2023-02-01T18:24:13;9.93;;;3.40;;
12947;SDS011;6539;49.476;8.484;2023-02-01T18:26:41;8.80;;;2.87;;
12947;SDS011;6539;49.476;8.484;2023-02-01T18:29:08;8.63;;;3.10;;
12947;SDS011;6539;49.476;8.484;2023-02-01T18:31:35;10.63;;;3.17;;
12947;SDS011;6539;49.476;8.484;2023-02-01T18:34:09;7.00;;;2.90;;
12947;SDS011;6539;49.476;8.484;2023-02-01T18:36:47;14.87;;;3.30;;
12947;SDS011;6539;49.476;8.484;2023-02-01T18:39:16;11.47;;;2.90;;